Aérodrome :
LOGIN :

S'inscrire | Disclaimer

   EN    FR    IT 

 










Légende :    VFR   VFR Marginal   IFR   IFR Intensif   IFR Très Intensif
Visi : 
Plafond : 
>= 8 km
>= 3000ft
5 à 8 km
1000 à 3000 ft
1500m à 5 km
500 à 1000 ft
800 à 1500m
200 à 500 ft
< 800m
< 200 ft
Symboles :   Orages  Brouillard  Fortes neiges  Fortes précipitations  Vent > 20 kt
SIGMETs :   Divers  Orages  Givrage  Turbulence  Onde Orograph.  Cendres Volcan.







- Altitude de l'aérodrome : 529 ft
- Code IATA : CHR
- Voir les cartes d'approche


LFLX - Chateauroux

DERNIER METAR :
  • 011730Z AUTO 24024KT 9999 -RA BKN016 BKN021 OVC027 11/09 Q1009 TEMPO 22020G30KT 2500 -RA BKN006 OVC012

METARs EXPIRÉS :
  • 011700Z AUTO 24023KT 9999 -RA BKN015 OVC021 11/09 Q1009 TEMPO 22015G30KT 2500 RA BKN006
  • 011630Z AUTO 24021KT 9999 -RA BKN014 OVC020 11/10 Q1009 TEMPO 22015G30KT 2500 RA BKN006
  • 011600Z AUTO 24021KT 9999 -RA OVC012 11/10 Q1009 TEMPO 22015G30KT 2500 RA BKN006
  • 011530Z AUTO 24021KT 9999 -RA OVC012 11/10 Q1009 TEMPO 22015G30KT 2500 RA BKN006
  • 011500Z AUTO 24021KT 9999 -RA OVC013/// ///TCU 11/10 Q1008 TEMPO 22015G30KT 2500 RA BKN006

TAF TAF LFLX
Valide du 01 à 18h jusqu'au 03 à 00h UTC


011700Z 0118/0224 23020KT 9999 OVC020
PROB40
TEMPO 0118/0201 22020G30KT 2500 -RA BKN006 OVC012
PROB40
TEMPO 0122/0201 SCT015TCU
BECMG 0201/0203 24010KT SCT020
PROB40
TEMPO 0203/0210 3000 BR BKN004
PROB30 0205/0208 0800 BCFG
BECMG 0212/0215 12004KT
Pas de NOTAMs connus pour ce terrain.
1 SIGMET publié pour la FIR Bordeaux (LFBB) :
 
Turbulence forte
LFBB SIGMET 2 VALID 011600/012000 LFPW
LFBB BORDEAUX FIR/UIR SEV TURB OBS WI N4530 W00145 - N4630 W00130 - N4630 W00015 - N4715 W00015 - N4630 E00100 SFC/FL040 STNR NC=



MET'MAP, la Météo Aéronautique d'un coup d'oeil ! - Copyright ORBIFLY Décembre 2007 - Disclaimer

ORBIFLY MET'MAP TEAM :

Programmation & Développement : Alexandra Zaïnal
Conception & Développement : Baudouin d'Aumeries
Co-Programmation & Développement : Marc-Olivier Méhu
Soutien technique & logistique : Manuel Goepfert

Contact : metmap@orbifly.com




SOURCES & CREDITS :

   NOAA